createdAt,value
2022-09-15T00:02:25.846Z,15.90
2022-09-15T00:05:08.874Z,15.80
2022-09-15T00:08:05.756Z,15.90
2022-09-15T00:10:50.196Z,15.90
2022-09-15T00:13:40.772Z,15.90
2022-09-15T00:16:33.562Z,15.90
2022-09-15T00:19:24.777Z,16.00
2022-09-15T00:22:24.043Z,16.00
2022-09-15T00:25:23.711Z,16.00
2022-09-15T00:28:15.996Z,15.80
2022-09-15T00:31:00.778Z,15.80
2022-09-15T00:33:55.086Z,15.80
2022-09-15T00:36:38.814Z,15.80
2022-09-15T00:39:28.879Z,15.80
2022-09-15T00:42:12.708Z,15.80
2022-09-15T00:45:11.808Z,15.90
2022-09-15T00:48:02.122Z,16.00
2022-09-15T00:50:51.815Z,15.90
2022-09-15T00:53:43.254Z,15.80
2022-09-15T00:56:27.718Z,15.80
2022-09-15T00:59:21.895Z,15.80
2022-09-15T01:02:07.827Z,15.80
2022-09-15T01:04:59.104Z,15.70
2022-09-15T01:07:53.801Z,15.60
2022-09-15T01:10:39.855Z,15.60
2022-09-15T01:13:31.761Z,15.60
2022-09-15T01:16:24.826Z,15.60
2022-09-15T01:19:13.105Z,15.60
2022-09-15T01:22:06.714Z,15.70
2022-09-15T01:25:09.080Z,15.60
2022-09-15T01:28:13.717Z,15.60
2022-09-15T01:31:01.987Z,15.60
2022-09-15T01:34:01.805Z,15.70
2022-09-15T01:36:48.714Z,15.70
2022-09-15T01:39:41.795Z,15.70
2022-09-15T01:42:25.675Z,15.50
2022-09-15T01:45:18.708Z,15.70
2022-09-15T01:48:12.929Z,15.70
2022-09-15T01:51:00.693Z,15.60
2022-09-15T01:53:53.029Z,15.60
2022-09-15T01:56:38.696Z,15.50
2022-09-15T01:59:29.910Z,15.50
2022-09-15T02:02:16.788Z,15.60
2022-09-15T02:05:09.871Z,15.60
2022-09-15T02:08:12.724Z,15.60
2022-09-15T02:11:01.483Z,15.60
2022-09-15T02:13:59.805Z,15.50
2022-09-15T02:16:44.767Z,15.50
2022-09-15T02:19:50.938Z,15.50
2022-09-15T02:22:50.784Z,15.60
2022-09-15T02:25:42.723Z,15.60
2022-09-15T02:28:27.114Z,15.90
2022-09-15T02:31:18.762Z,15.80
2022-09-15T02:34:09.152Z,15.90
2022-09-15T02:36:59.704Z,15.90
2022-09-15T02:39:49.149Z,15.80
2022-09-15T02:42:40.724Z,15.70
2022-09-15T02:45:31.929Z,16.00
2022-09-15T02:48:25.263Z,16.10
2022-09-15T02:51:07.742Z,16.20
2022-09-15T02:54:06.837Z,16.40
2022-09-15T02:56:52.513Z,16.40
2022-09-15T02:59:57.755Z,16.20
2022-09-15T03:02:50.497Z,16.00
2022-09-15T03:05:35.752Z,15.80
2022-09-15T03:08:31.549Z,15.90
2022-09-15T03:11:13.756Z,15.90
2022-09-15T03:14:06.953Z,15.80
2022-09-15T03:16:52.767Z,15.70
2022-09-15T03:19:49.787Z,15.70
2022-09-15T03:22:48.815Z,15.60
2022-09-15T03:25:37.756Z,15.70
2022-09-15T03:28:21.930Z,15.80
2022-09-15T03:31:13.880Z,15.80
2022-09-15T03:33:59.242Z,15.90
2022-09-15T03:36:51.066Z,15.80
2022-09-15T03:39:34.988Z,16.00
2022-09-15T03:42:25.765Z,16.00
2022-09-15T03:45:14.661Z,15.80
2022-09-15T03:48:13.876Z,15.80
2022-09-15T03:50:57.203Z,15.80
2022-09-15T03:53:48.796Z,15.80
2022-09-15T03:56:32.799Z,16.00
2022-09-15T03:59:24.174Z,16.30
2022-09-15T04:02:07.282Z,16.30
2022-09-15T04:04:58.771Z,16.40
2022-09-15T04:07:52.308Z,16.30
2022-09-15T04:10:34.881Z,16.50
2022-09-15T04:13:28.440Z,16.70
2022-09-15T04:16:16.860Z,16.60
2022-09-15T04:19:08.016Z,16.70
2022-09-15T04:21:52.809Z,16.70
2022-09-15T04:24:55.807Z,16.60
2022-09-15T04:27:52.818Z,16.60
2022-09-15T04:30:37.029Z,16.60
2022-09-15T04:33:27.775Z,16.60
2022-09-15T04:36:16.474Z,16.70
2022-09-15T04:39:12.839Z,16.90
2022-09-15T04:41:55.623Z,16.70
2022-09-15T04:44:45.784Z,16.80
2022-09-15T04:47:29.122Z,16.80
2022-09-15T04:50:18.867Z,16.60
2022-09-15T04:53:17.969Z,16.50
2022-09-15T04:56:09.900Z,16.50
2022-09-15T04:59:03.977Z,16.70
2022-09-15T05:01:48.851Z,16.50
2022-09-15T05:04:40.378Z,16.60
2022-09-15T05:07:22.819Z,16.50
2022-09-15T05:10:14.252Z,16.40
2022-09-15T05:13:11.880Z,16.20
2022-09-15T05:15:55.454Z,16.00
2022-09-15T05:18:45.785Z,16.00
2022-09-15T05:21:29.621Z,15.80
2022-09-15T05:24:18.800Z,15.90
2022-09-15T05:27:01.239Z,16.00
2022-09-15T05:30:16.122Z,15.70
2022-09-15T05:33:08.062Z,15.70
2022-09-15T05:35:57.887Z,15.70
2022-09-15T05:38:49.001Z,15.60
2022-09-15T05:41:37.045Z,15.80
2022-09-15T05:44:26.982Z,15.80
2022-09-15T05:47:11.806Z,15.80
2022-09-15T05:50:02.209Z,15.70
2022-09-15T05:52:53.815Z,15.70
2022-09-15T05:55:40.667Z,15.70
2022-09-15T05:58:31.802Z,15.90
2022-09-15T06:01:15.011Z,15.80
2022-09-15T06:04:08.899Z,15.90
2022-09-15T06:06:51.318Z,16.00
2022-09-15T06:09:41.058Z,15.90
2022-09-15T06:12:25.494Z,15.90
2022-09-15T06:15:15.820Z,15.90
2022-09-15T06:18:08.368Z,15.90
2022-09-15T06:20:53.902Z,15.80
2022-09-15T06:23:51.002Z,15.80
2022-09-15T06:26:42.851Z,15.80
2022-09-15T06:29:26.209Z,15.80
2022-09-15T06:32:14.952Z,16.00
2022-09-15T06:35:02.503Z,16.00
2022-09-15T06:38:00.822Z,15.90
2022-09-15T06:40:45.126Z,16.10
2022-09-15T06:43:35.998Z,16.30
2022-09-15T06:46:22.186Z,16.50
2022-09-15T06:49:14.100Z,16.60
2022-09-15T06:51:56.489Z,16.80
2022-09-15T06:54:47.949Z,17.00
2022-09-15T06:57:35.562Z,17.20
2022-09-15T07:00:28.005Z,17.30
2022-09-15T07:03:17.205Z,17.30
2022-09-15T07:05:59.968Z,17.70
2022-09-15T07:08:50.240Z,17.90
2022-09-15T07:11:34.894Z,17.60
2022-09-15T07:14:26.134Z,17.30
2022-09-15T07:17:14.864Z,17.30
2022-09-15T07:19:59.079Z,17.60
2022-09-15T07:22:56.865Z,17.90
2022-09-15T07:25:39.192Z,18.20
2022-09-15T07:28:35.846Z,17.90
2022-09-15T07:31:19.817Z,17.70
2022-09-15T07:34:10.849Z,17.70
2022-09-15T07:36:53.214Z,17.80
2022-09-15T07:39:43.877Z,17.90
2022-09-15T07:42:35.573Z,17.90
2022-09-15T07:45:20.200Z,17.80
2022-09-15T07:48:21.255Z,18.10
2022-09-15T07:51:08.913Z,18.10
2022-09-15T07:54:03.856Z,18.40
2022-09-15T07:56:47.275Z,18.30
2022-09-15T07:59:41.401Z,18.50
2022-09-15T08:02:26.964Z,18.60
2022-09-15T08:05:26.873Z,18.70
2022-09-15T08:08:16.059Z,18.80
2022-09-15T08:10:59.919Z,18.80
2022-09-15T08:13:51.049Z,18.90
2022-09-15T08:16:34.986Z,18.90
2022-09-15T08:19:25.151Z,18.90
2022-09-15T08:22:11.895Z,18.80
2022-09-15T08:25:09.891Z,18.90
2022-09-15T08:28:09.920Z,19.10
2022-09-15T08:31:06.992Z,19.30
2022-09-15T08:33:56.142Z,19.40
2022-09-15T08:36:45.888Z,19.40
2022-09-15T08:39:31.130Z,19.40
2022-09-15T08:42:22.937Z,19.40
2022-09-15T08:45:09.579Z,19.60
2022-09-15T08:48:08.117Z,19.60
2022-09-15T08:50:55.570Z,19.60
2022-09-15T08:53:47.966Z,19.50
2022-09-15T08:56:30.695Z,19.70
2022-09-15T08:59:19.885Z,19.70
2022-09-15T09:02:36.912Z,19.90
2022-09-15T09:05:35.881Z,20.10
2022-09-15T09:08:47.042Z,19.90
2022-09-15T09:11:34.877Z,20.10
2022-09-15T09:14:31.111Z,19.80
2022-09-15T09:17:28.920Z,19.80
2022-09-15T09:20:33.384Z,19.60
2022-09-15T09:23:26.943Z,19.70
2022-09-15T09:26:12.661Z,19.70
2022-09-15T09:29:06.900Z,19.60
2022-09-15T09:31:50.315Z,19.60
2022-09-15T09:34:50.861Z,19.80
2022-09-15T09:37:36.320Z,20.00
2022-09-15T09:40:38.950Z,19.80
2022-09-15T09:43:29.199Z,20.10
2022-09-15T09:46:23.629Z,20.10
2022-09-15T09:49:22.321Z,20.30
2022-09-15T09:52:13.246Z,20.30
2022-09-15T09:55:09.128Z,20.40
2022-09-15T09:58:09.488Z,20.50
2022-09-15T10:00:52.577Z,20.40
2022-09-15T10:03:45.909Z,20.60
2022-09-15T10:06:34.705Z,20.30
2022-09-15T10:09:24.886Z,20.50
2022-09-15T10:12:07.926Z,20.50
2022-09-15T10:15:01.987Z,20.30
2022-09-15T10:17:55.734Z,20.20
2022-09-15T10:20:43.977Z,20.60
2022-09-15T10:23:41.971Z,21.00
2022-09-15T10:26:40.892Z,20.70
2022-09-15T10:29:27.348Z,20.40
2022-09-15T10:32:29.979Z,20.40
2022-09-15T10:35:19.249Z,20.00
2022-09-15T10:38:19.931Z,20.30
2022-09-15T10:41:08.067Z,20.30
2022-09-15T10:44:06.972Z,20.40
2022-09-15T10:46:59.968Z,20.30
2022-09-15T10:50:15.916Z,20.30
2022-09-15T10:53:17.072Z,20.40
2022-09-15T10:56:06.914Z,20.80
2022-09-15T10:59:07.124Z,20.90
2022-09-15T11:02:07.296Z,21.00
2022-09-15T11:05:07.617Z,21.10
2022-09-15T11:08:09.003Z,21.10
2022-09-15T11:10:57.832Z,21.00
2022-09-15T11:13:57.067Z,21.20
2022-09-15T11:16:44.755Z,21.20
2022-09-15T11:19:42.978Z,21.10
2022-09-15T11:22:30.980Z,21.20
2022-09-15T11:25:30.250Z,20.90
2022-09-15T11:28:27.293Z,20.80
2022-09-15T11:31:14.023Z,20.60
2022-09-15T11:34:08.228Z,20.70
2022-09-15T11:36:54.033Z,20.40
2022-09-15T11:39:44.442Z,20.40
2022-09-15T11:42:39.804Z,20.40
2022-09-15T11:45:19.942Z,20.30
2022-09-15T11:47:56.500Z,20.20
2022-09-15T11:50:31.461Z,20.10
2022-09-15T11:53:05.785Z,19.60
2022-09-15T11:55:39.287Z,19.50
2022-09-15T11:58:24.101Z,19.00
2022-09-15T12:00:59.067Z,18.80
2022-09-15T12:03:36.600Z,18.60
2022-09-15T12:06:13.328Z,18.60
2022-09-15T12:08:45.283Z,18.40
2022-09-15T12:11:18.832Z,18.30
2022-09-15T12:13:55.362Z,18.50
2022-09-15T12:16:24.731Z,18.60
2022-09-15T12:18:59.049Z,18.80
2022-09-15T12:21:35.414Z,19.00
2022-09-15T12:24:13.165Z,18.90
2022-09-15T12:26:46.911Z,18.90
2022-09-15T12:29:42.492Z,19.10
2022-09-15T12:32:28.979Z,19.20
2022-09-15T12:35:27.220Z,19.40
2022-09-15T12:37:58.385Z,19.50
2022-09-15T12:40:34.734Z,19.50
2022-09-15T12:43:05.483Z,19.60
2022-09-15T12:45:37.402Z,19.60
2022-09-15T12:48:13.481Z,19.50
2022-09-15T12:50:56.064Z,19.30
2022-09-15T12:53:28.902Z,19.20
2022-09-15T12:56:00.657Z,19.10
2022-09-15T12:58:36.456Z,19.10
2022-09-15T13:01:48.991Z,19.20
2022-09-15T13:04:55.183Z,18.90
2022-09-15T13:07:38.604Z,19.00
2022-09-15T13:10:28.992Z,19.30
2022-09-15T13:13:23.661Z,19.30
2022-09-15T13:15:56.239Z,19.50
2022-09-15T13:18:31.135Z,19.90
2022-09-15T13:21:10.514Z,19.80
2022-09-15T13:23:43.769Z,19.80
2022-09-15T13:26:18.837Z,19.70
2022-09-15T13:28:55.686Z,19.80
2022-09-15T13:31:38.768Z,19.90
2022-09-15T13:38:06.935Z,20.20
2022-09-15T13:41:19.221Z,20.20
2022-09-15T13:44:30.328Z,20.30
2022-09-15T13:47:09.908Z,20.50
2022-09-15T13:50:00.979Z,20.60
2022-09-15T13:53:04.170Z,20.50
2022-09-15T13:55:39.411Z,20.50
2022-09-15T14:01:06.926Z,20.90
2022-09-15T14:03:41.668Z,21.10
2022-09-15T14:06:22.309Z,21.20
2022-09-15T14:08:54.938Z,21.20
2022-09-15T14:11:31.858Z,21.10
2022-09-15T14:14:03.075Z,21.00
2022-09-15T14:16:35.449Z,20.80
2022-09-15T14:19:24.057Z,20.90
2022-09-15T14:21:58.255Z,21.00
2022-09-15T14:24:30.096Z,21.10
2022-09-15T14:27:06.598Z,21.20
2022-09-15T14:29:41.334Z,21.20
2022-09-15T14:32:15.937Z,21.10
2022-09-15T14:34:49.252Z,21.00
2022-09-15T14:37:24.026Z,21.00
2022-09-15T14:39:56.513Z,20.80
2022-09-15T14:42:34.080Z,20.80
2022-09-15T14:48:07.916Z,20.70
2022-09-15T14:50:38.157Z,20.30
2022-09-15T14:53:17.709Z,20.20
2022-09-15T14:55:54.215Z,20.00
2022-09-15T14:58:29.260Z,20.10
2022-09-15T15:01:04.909Z,19.80
2022-09-15T15:03:40.611Z,19.80
2022-09-15T15:06:28.724Z,19.70
2022-09-15T15:09:06.678Z,19.60
2022-09-15T15:11:37.116Z,19.50
2022-09-15T15:14:09.658Z,19.50
2022-09-15T15:16:50.563Z,19.60
2022-09-15T15:19:38.506Z,19.70
2022-09-15T15:22:18.545Z,19.50
2022-09-15T15:24:52.207Z,19.30
2022-09-15T15:27:44.483Z,19.10
2022-09-15T15:30:44.871Z,18.90
2022-09-15T15:33:21.894Z,18.90
2022-09-15T15:36:07.703Z,18.70
2022-09-15T15:38:47.127Z,18.70
2022-09-15T15:41:24.764Z,18.60
2022-09-15T15:44:10.900Z,18.60
2022-09-15T15:46:49.270Z,18.80
2022-09-15T15:49:18.759Z,18.90
2022-09-15T15:51:48.754Z,18.90
2022-09-15T15:54:18.341Z,18.90
2022-09-15T15:56:48.684Z,19.00
2022-09-15T15:59:19.715Z,19.10
2022-09-15T16:01:52.839Z,19.10
2022-09-15T16:04:25.421Z,19.00
2022-09-15T16:06:57.041Z,18.90
2022-09-15T16:09:29.666Z,19.00
2022-09-15T16:12:01.011Z,19.00
2022-09-15T16:14:29.340Z,18.90
2022-09-15T16:17:01.862Z,18.90
2022-09-15T16:19:32.034Z,18.90
2022-09-15T16:22:06.322Z,19.10
2022-09-15T16:24:39.230Z,19.00
2022-09-15T16:27:16.024Z,19.20
2022-09-15T16:29:46.134Z,19.10
2022-09-15T16:32:20.986Z,19.10
2022-09-15T16:34:51.287Z,19.10
2022-09-15T16:37:20.098Z,19.10
2022-09-15T16:39:52.037Z,18.90
2022-09-15T16:42:24.714Z,19.10
2022-09-15T16:44:55.597Z,18.90
2022-09-15T16:47:25.740Z,19.10
2022-09-15T16:49:55.395Z,18.90
2022-09-15T16:52:24.028Z,18.70
2022-09-15T16:54:53.054Z,18.60
2022-09-15T16:57:23.480Z,18.70
2022-09-15T16:59:52.797Z,18.80
2022-09-15T17:02:22.471Z,18.80
2022-09-15T17:04:51.970Z,19.00
2022-09-15T17:07:26.039Z,19.10
2022-09-15T17:09:55.236Z,18.90
2022-09-15T17:12:25.367Z,18.90
2022-09-15T17:14:55.236Z,18.80
2022-09-15T17:17:26.661Z,18.70
2022-09-15T17:19:55.084Z,18.60
2022-09-15T17:22:24.138Z,18.60
2022-09-15T17:24:54.124Z,18.70
2022-09-15T17:27:27.226Z,18.70
2022-09-15T17:30:00.846Z,18.60
2022-09-15T17:32:34.684Z,18.40
2022-09-15T17:35:14.421Z,18.30
2022-09-15T17:37:43.116Z,18.30
2022-09-15T17:40:12.780Z,18.40
2022-09-15T17:42:43.224Z,18.50
2022-09-15T17:45:18.088Z,18.50
2022-09-15T17:47:51.321Z,18.50
2022-09-15T17:50:22.150Z,18.50
2022-09-15T17:52:51.602Z,18.40
2022-09-15T17:55:26.801Z,18.40
2022-09-15T17:57:59.248Z,18.50
2022-09-15T18:00:30.325Z,18.40
2022-09-15T18:03:01.853Z,18.30
2022-09-15T18:05:33.964Z,18.20
2022-09-15T18:08:11.195Z,18.20
2022-09-15T18:10:40.232Z,18.30
2022-09-15T18:13:15.313Z,18.40
2022-09-15T18:15:44.562Z,18.30
2022-09-15T18:18:15.773Z,18.10
2022-09-15T18:20:44.508Z,18.20
2022-09-15T18:23:15.431Z,18.30
2022-09-15T18:25:50.148Z,18.20
2022-09-15T18:28:21.323Z,18.30
2022-09-15T18:30:53.126Z,18.20
2022-09-15T18:33:24.616Z,18.30
2022-09-15T18:35:56.765Z,18.20
2022-09-15T18:38:26.625Z,18.20
2022-09-15T18:40:57.753Z,18.10
2022-09-15T18:43:28.595Z,18.30
2022-09-15T18:46:02.612Z,18.50
2022-09-15T18:48:32.138Z,18.20
2022-09-15T18:51:01.158Z,18.20
2022-09-15T18:53:30.341Z,18.30
2022-09-15T18:55:58.584Z,18.30
2022-09-15T18:58:29.661Z,18.30
2022-09-15T19:01:00.928Z,18.20
2022-09-15T19:03:30.089Z,18.20
2022-09-15T19:06:06.234Z,18.20
2022-09-15T19:08:37.872Z,18.30
2022-09-15T19:11:09.297Z,18.30
2022-09-15T19:13:40.830Z,18.10
2022-09-15T19:16:13.104Z,18.10
2022-09-15T19:18:48.388Z,18.20
2022-09-15T19:21:17.420Z,18.40
2022-09-15T19:23:47.443Z,18.30
2022-09-15T19:26:21.167Z,18.40
2022-09-15T19:28:52.810Z,18.30
2022-09-15T19:31:22.298Z,18.20
2022-09-15T19:33:51.274Z,18.10
2022-09-15T19:36:29.000Z,18.10
2022-09-15T19:39:00.288Z,18.10
2022-09-15T19:41:29.305Z,18.00
2022-09-15T19:44:05.279Z,18.00
2022-09-15T19:46:36.032Z,18.10
2022-09-15T19:49:07.600Z,18.00
2022-09-15T19:51:36.222Z,18.10
2022-09-15T19:54:05.955Z,18.10
2022-09-15T19:56:36.693Z,18.00
2022-09-15T19:59:08.607Z,17.90
2022-09-15T20:01:37.284Z,18.10
2022-09-15T20:04:09.248Z,18.00
2022-09-15T20:06:43.144Z,17.90
2022-09-15T20:09:12.864Z,18.00
2022-09-15T20:11:42.165Z,17.90
2022-09-15T20:14:13.608Z,17.90
2022-09-15T20:16:42.141Z,18.00
2022-09-15T20:19:11.170Z,18.00
2022-09-15T20:21:50.724Z,18.00
2022-09-15T20:24:22.142Z,18.10
2022-09-15T20:26:56.896Z,18.10
2022-09-15T20:29:28.307Z,18.00
2022-09-15T20:31:56.683Z,18.10
2022-09-15T20:34:26.224Z,18.10
2022-09-15T20:36:55.112Z,17.90
2022-09-15T20:39:24.472Z,17.90
2022-09-15T20:41:54.421Z,17.90
2022-09-15T20:44:24.638Z,17.90
2022-09-15T20:46:54.726Z,17.90
2022-09-15T20:49:29.008Z,18.00
2022-09-15T20:51:57.439Z,18.10
2022-09-15T20:54:27.181Z,18.00
2022-09-15T20:56:57.349Z,17.80
2022-09-15T20:59:28.310Z,17.90
2022-09-15T21:01:58.397Z,17.80
2022-09-15T21:04:28.749Z,17.80
2022-09-15T21:06:57.146Z,17.80
2022-09-15T21:09:26.103Z,17.90
2022-09-15T21:12:00.826Z,17.90
2022-09-15T21:14:31.162Z,17.80
2022-09-15T21:17:03.079Z,17.90
2022-09-15T21:19:32.220Z,18.00
2022-09-15T21:22:00.399Z,17.90
2022-09-15T21:24:29.988Z,17.90
2022-09-15T21:27:16.237Z,17.90
2022-09-15T21:29:51.126Z,17.80
2022-09-15T21:32:23.549Z,17.70
2022-09-15T21:34:55.950Z,17.80
2022-09-15T21:37:28.197Z,17.80
2022-09-15T21:39:57.760Z,17.70
2022-09-15T21:42:27.470Z,17.90
2022-09-15T21:44:57.437Z,17.90
2022-09-15T21:47:27.870Z,18.00
2022-09-15T21:50:01.248Z,17.90
2022-09-15T21:52:31.013Z,18.00
2022-09-15T21:55:00.959Z,17.80
2022-09-15T21:57:30.354Z,17.60
2022-09-15T21:59:59.735Z,17.60
2022-09-15T22:02:31.214Z,17.60
2022-09-15T22:05:01.019Z,17.60
2022-09-15T22:07:30.193Z,17.70
2022-09-15T22:09:59.666Z,17.60
2022-09-15T22:12:33.242Z,17.70
2022-09-15T22:15:02.991Z,17.70
2022-09-15T22:17:35.818Z,17.60
2022-09-15T22:20:09.258Z,17.60
2022-09-15T22:22:37.683Z,17.70
2022-09-15T22:25:09.140Z,17.80
2022-09-15T22:27:38.765Z,17.70
2022-09-15T22:30:18.722Z,17.70
2022-09-15T22:32:49.937Z,17.80
2022-09-15T22:35:19.279Z,17.70
2022-09-15T22:37:50.396Z,17.70
2022-09-15T22:40:18.856Z,17.60
2022-09-15T22:42:48.342Z,17.60
2022-09-15T22:45:18.130Z,17.60
2022-09-15T22:47:47.165Z,17.60
2022-09-15T22:50:17.591Z,17.50
2022-09-15T22:52:53.677Z,17.50
2022-09-15T22:55:23.323Z,17.40
2022-09-15T22:57:55.301Z,17.40
2022-09-15T23:00:24.947Z,17.40
2022-09-15T23:02:54.921Z,17.40
2022-09-15T23:05:25.547Z,17.40
2022-09-15T23:07:55.185Z,17.50
2022-09-15T23:10:27.129Z,17.60
2022-09-15T23:12:59.322Z,17.50
2022-09-15T23:15:28.855Z,17.40
2022-09-15T23:17:57.489Z,17.40
2022-09-15T23:20:31.072Z,17.40
2022-09-15T23:22:59.551Z,17.40
2022-09-15T23:25:28.156Z,17.40
2022-09-15T23:27:56.431Z,17.40
2022-09-15T23:30:25.951Z,17.20
2022-09-15T23:32:54.211Z,17.10
2022-09-15T23:35:23.795Z,17.10
2022-09-15T23:38:01.966Z,17.00
2022-09-15T23:40:31.208Z,17.00
2022-09-15T23:43:00.844Z,17.00
2022-09-15T23:45:30.093Z,17.00
2022-09-15T23:47:58.495Z,17.10
2022-09-15T23:50:29.020Z,17.00
2022-09-15T23:52:58.914Z,17.00
2022-09-15T23:55:28.285Z,17.20
2022-09-15T23:57:57.520Z,17.20
